Andersonburg, Pennsylvania
Current Conditions -  °F | °C
As of 9:40 PM on Wednesday 26 Nov 2014 (Local Time) from KCXY Reporting Station
Overcast Overcast  
Wind Chill: 29°   Ceiling: 2000
Heat Index: 35°   Visibility: 10mi
Dew Point: 30°   Wind: 8mph
Humidity: 82%   Direction: 310°NW
Pressure: 29.95"   Gusts: NA
Location:  40.3674°N, 77.4381°W
Report Text: KCXY 270240Z AUTO 31007KT 10SM BKN020 OVC070 02/M01 A2995 RMK AO2 T00171011
Loading
Personal Weather Stations






























Interactive Weather Map New forecast layout! Learn more

10-Day Weather Forecast

Advertisements
Track Severe Weather on mobile